Time;durP1;ratioP1;P1;durP2;ratioP2;P2;SDS_P1;SDS_P2;PMS_P1;PMS_P2;Temp;Humidity;BMP_temperature;BMP_pressure;BME280_temperature;BME280_humidity;BME280_pressure;Samples;Min_cycle;Max_cycle;Signal;HPM_P1;HPM_P2
2022/07/06 00:02:23;;;;;;;;;;;563.40;2432.00;;;;;;5094115;28;19932;-56
2022/07/06 00:04:49;;;;;;;;;;;563.40;2432.00;;;;;;5094000;28;19934;-57
2022/07/06 00:07:14;;;;;;;;;;;563.50;2432.00;;;;;;5093826;28;19908;-55
2022/07/06 00:09:41;;;;;;;;;;;563.60;2432.00;;;;;;5094007;28;19960;-57
2022/07/06 00:12:07;;;;;;;;;;;563.70;2432.00;;;;;;5093912;28;19954;-54
2022/07/06 00:14:32;;;;;;;;;;;563.70;2432.00;;;;;;5094033;28;19951;-56
2022/07/06 00:16:58;;;;;;;;;;;563.70;2432.00;;;;;;5093908;28;20407;-57
2022/07/06 00:19:24;;;;;;;;;;;563.90;2432.00;;;;;;5094128;28;20005;-57
2022/07/06 00:21:49;;;;;;;;;;;563.80;2432.00;;;;;;5093881;28;19939;-56
2022/07/06 00:24:17;;;;;;;;;;;563.60;2432.00;;;;;;5093745;28;19908;-57
2022/07/06 00:26:43;;;;;;;;;;;563.70;2432.00;;;;;;5093740;28;19963;-55
2022/07/06 00:29:09;;;;;;;;;;;563.70;2432.00;;;;;;5093765;28;20011;-56
2022/07/06 00:31:35;;;;;;;;;;;563.70;2432.00;;;;;;5093540;28;19963;-58
2022/07/06 00:34:00;;;;;;;;;;;563.60;2432.00;;;;;;5093560;28;19965;-55
2022/07/06 00:36:27;;;;;;;;;;;563.70;2432.00;;;;;;5093380;28;19999;-58
2022/07/06 00:38:52;;;;;;;;;;;563.80;2432.00;;;;;;5093472;28;19919;-56
2022/07/06 00:41:18;;;;;;;;;;;563.80;2432.00;;;;;;5093274;28;19916;-56
2022/07/06 00:43:50;;;;;;;;;;;563.90;2432.00;;;;;;5093517;28;20366;-56
2022/07/06 00:46:16;;;;;;;;;;;563.90;2432.00;;;;;;5093278;28;20312;-58
2022/07/06 00:48:42;;;;;;;;;;;564.00;2432.00;;;;;;5093454;28;19912;-55
2022/07/06 00:51:07;;;;;;;;;;;564.00;2432.00;;;;;;5093474;28;19912;-58
2022/07/06 00:53:33;;;;;;;;;;;564.00;2432.00;;;;;;5091562;28;19908;-56
2022/07/06 00:55:59;;;;;;;;;;;564.10;2432.00;;;;;;5092991;28;19937;-55
2022/07/06 00:58:24;;;;;;;;;;;564.10;2432.00;;;;;;5092892;28;19908;-56
2022/07/06 01:00:50;;;;;;;;;;;564.00;2432.00;;;;;;5092958;28;19920;-54
2022/07/06 01:03:15;;;;;;;;;;;564.00;2432.00;;;;;;5092779;28;20411;-56
2022/07/06 01:05:41;;;;;;;;;;;564.10;2432.00;;;;;;5092703;28;20464;-57
2022/07/06 01:08:07;;;;;;;;;;;564.00;2432.00;;;;;;5092520;28;19908;-59
2022/07/06 01:10:32;;;;;;;;;;;564.10;2432.00;;;;;;5092867;28;19957;-61
2022/07/06 01:12:58;;;;;;;;;;;564.10;2432.00;;;;;;5092833;28;19909;-59
2022/07/06 01:15:24;;;;;;;;;;;564.00;2432.00;;;;;;5091593;28;20353;-58
2022/07/06 01:17:50;;;;;;;;;;;564.00;2432.00;;;;;;5092800;28;19908;-58
2022/07/06 01:20:17;;;;;;;;;;;563.80;2432.00;;;;;;5092414;28;19916;-58
2022/07/06 01:22:43;;;;;;;;;;;563.90;2432.00;;;;;;5092597;28;19999;-60
2022/07/06 01:25:10;;;;;;;;;;;563.80;2432.00;;;;;;5092589;28;19919;-60
2022/07/06 01:27:39;;;;;;;;;;;563.70;2432.00;;;;;;5092588;28;19915;-59
2022/07/06 01:30:09;;;;;;;;;;;563.70;2432.00;;;;;;5092392;28;19911;-59
2022/07/06 01:32:35;;;;;;;;;;;563.70;2432.00;;;;;;5092590;28;20822;-59
2022/07/06 01:35:00;;;;;;;;;;;563.70;2432.00;;;;;;5092441;28;19919;-59
2022/07/06 01:37:26;;;;;;;;;;;563.60;2432.00;;;;;;5092151;28;19908;-59
2022/07/06 01:39:52;;;;;;;;;;;563.50;2432.00;;;;;;5092359;28;20003;-59
2022/07/06 01:42:17;;;;;;;;;;;563.50;2432.00;;;;;;5091909;28;20358;-58
2022/07/06 01:44:44;;;;;;;;;;;563.50;2432.00;;;;;;5092169;28;20014;-60
2022/07/06 01:47:10;;;;;;;;;;;563.50;2432.00;;;;;;5092351;28;19908;-58
2022/07/06 01:49:36;;;;;;;;;;;563.40;2432.00;;;;;;5092001;28;19914;-59
2022/07/06 01:52:01;;;;;;;;;;;563.40;2432.00;;;;;;5090940;28;19915;-60
2022/07/06 01:54:27;;;;;;;;;;;563.40;2432.00;;;;;;5091735;28;19914;-60
2022/07/06 01:56:52;;;;;;;;;;;563.40;2432.00;;;;;;5092033;28;19912;-60
2022/07/06 01:59:18;;;;;;;;;;;563.30;2432.00;;;;;;5091586;28;19915;-59
2022/07/06 02:01:43;;;;;;;;;;;563.30;2432.00;;;;;;5091809;28;19977;-58
2022/07/06 02:04:09;;;;;;;;;;;563.30;2432.00;;;;;;5091812;28;20354;-59
2022/07/06 02:06:34;;;;;;;;;;;563.20;2432.00;;;;;;5091644;28;20269;-61
2022/07/06 02:09:00;;;;;;;;;;;538.50;2406.40;;;;;;5091782;28;20031;-62
2022/07/06 02:11:27;;;;;;;;;;;538.50;2406.40;;;;;;5091673;28;19966;-58
2022/07/06 02:13:53;;;;;;;;;;;538.50;2406.40;;;;;;5091708;28;19935;-58
2022/07/06 02:16:19;;;;;;;;;;;538.40;2406.40;;;;;;5091491;28;20365;-59
2022/07/06 02:18:44;;;;;;;;;;;538.40;2406.40;;;;;;5090662;28;20379;-59
2022/07/06 02:21:10;;;;;;;;;;;538.40;2406.40;;;;;;5091447;28;20007;-62
2022/07/06 02:23:35;;;;;;;;;;;538.20;2406.40;;;;;;5091568;28;19973;-58
2022/07/06 02:26:01;;;;;;;;;;;538.20;2406.40;;;;;;5091702;28;20381;-57
2022/07/06 02:28:26;;;;;;;;;;;538.20;2406.40;;;;;;5091118;28;19908;-59
2022/07/06 02:30:52;;;;;;;;;;;538.20;2406.40;;;;;;5091572;28;19922;-58
2022/07/06 02:33:18;;;;;;;;;;;538.20;2406.40;;;;;;5091042;28;19964;-60
2022/07/06 02:35:43;;;;;;;;;;;538.20;2406.40;;;;;;5091324;28;19960;-58
2022/07/06 02:38:09;;;;;;;;;;;538.20;2406.40;;;;;;5091012;28;19915;-59
2022/07/06 02:40:35;;;;;;;;;;;538.20;2406.40;;;;;;5090961;28;19908;-60
2022/07/06 02:43:01;;;;;;;;;;;538.20;2406.40;;;;;;5091185;28;19965;-58
2022/07/06 02:45:26;;;;;;;;;;;538.20;2406.40;;;;;;5091011;28;20328;-59
2022/07/06 02:47:53;;;;;;;;;;;538.10;2406.40;;;;;;5091133;28;20335;-58
2022/07/06 02:50:18;;;;;;;;;;;538.10;2406.40;;;;;;5090785;28;20302;-61
2022/07/06 02:52:44;;;;;;;;;;;538.10;2406.40;;;;;;5090913;28;19908;-61
2022/07/06 02:55:09;;;;;;;;;;;538.10;2406.40;;;;;;5091096;28;20062;-58
2022/07/06 02:57:35;;;;;;;;;;;538.20;2406.40;;;;;;5090820;28;19908;-61
2022/07/06 03:00:01;;;;;;;;;;;538.30;2406.40;;;;;;5090723;28;20007;-59
2022/07/06 03:02:27;;;;;;;;;;;538.20;2406.40;;;;;;5090610;28;19920;-60
2022/07/06 03:04:52;;;;;;;;;;;538.20;2406.40;;;;;;5090938;28;19912;-61
2022/07/06 03:07:18;;;;;;;;;;;538.10;2406.40;;;;;;5090394;28;19908;-59
2022/07/06 03:09:43;;;;;;;;;;;538.10;2406.40;;;;;;5090929;28;19908;-60
2022/07/06 03:12:09;;;;;;;;;;;538.10;2406.40;;;;;;5090892;28;20377;-61
2022/07/06 03:14:34;;;;;;;;;;;538.20;2406.40;;;;;;5090779;28;20288;-61
2022/07/06 03:17:00;;;;;;;;;;;538.20;2406.40;;;;;;5090845;28;20285;-60
2022/07/06 03:19:25;;;;;;;;;;;538.20;2406.40;;;;;;5090455;28;19916;-60
2022/07/06 03:21:51;;;;;;;;;;;538.20;2406.40;;;;;;5090421;28;19966;-61
2022/07/06 03:24:17;;;;;;;;;;;538.10;2406.40;;;;;;5090380;28;20362;-61
2022/07/06 03:26:42;;;;;;;;;;;538.10;2406.40;;;;;;5090540;28;20375;-64
2022/07/06 03:29:08;;;;;;;;;;;538.10;2406.40;;;;;;5090700;28;19915;-60
2022/07/06 03:31:35;;;;;;;;;;;538.20;2406.40;;;;;;5094780;28;19962;-59
2022/07/06 03:34:00;;;;;;;;;;;538.20;2406.40;;;;;;5094819;28;19919;-59
2022/07/06 03:36:26;;;;;;;;;;;538.20;2406.40;;;;;;5094508;28;19909;-59
2022/07/06 03:38:51;;;;;;;;;;;538.30;2406.40;;;;;;5094532;28;19968;-60
2022/07/06 03:41:17;;;;;;;;;;;538.30;2406.40;;;;;;5094264;28;19912;-60
2022/07/06 03:43:43;;;;;;;;;;;538.30;2406.40;;;;;;5094704;28;20003;-60
2022/07/06 03:46:08;;;;;;;;;;;538.40;2406.40;;;;;;5094516;28;19931;-60
2022/07/06 03:48:34;;;;;;;;;;;538.50;2406.40;;;;;;5094508;28;19908;-59
2022/07/06 03:50:59;;;;;;;;;;;538.50;2406.40;;;;;;5094311;28;20387;-62
2022/07/06 03:53:26;;;;;;;;;;;563.30;2432.00;;;;;;5094007;28;19954;-60
2022/07/06 03:58:35;;;;;;;;;;;538.50;2406.40;;;;;;5094162;28;19930;-61
2022/07/06 04:01:01;;;;;;;;;;;538.50;2406.40;;;;;;5093958;28;20437;-62
2022/07/06 04:03:26;;;;;;;;;;;538.50;2406.40;;;;;;5093839;28;20297;-62
2022/07/06 04:05:52;;;;;;;;;;;538.50;2406.40;;;;;;5094189;28;20364;-58
2022/07/06 04:08:18;;;;;;;;;;;538.50;2406.40;;;;;;5093760;28;19908;-59
2022/07/06 04:10:43;;;;;;;;;;;538.40;2406.40;;;;;;5093692;28;19915;-59
2022/07/06 04:13:09;;;;;;;;;;;538.50;2406.40;;;;;;5093981;28;19908;-62
2022/07/06 04:15:34;;;;;;;;;;;538.40;2406.40;;;;;;5094123;28;19915;-61
2022/07/06 04:18:00;;;;;;;;;;;538.40;2406.40;;;;;;5093984;28;20350;-59
2022/07/06 04:20:26;;;;;;;;;;;538.50;2406.40;;;;;;5093672;28;20358;-59
2022/07/06 04:22:51;;;;;;;;;;;563.30;2432.00;;;;;;5093549;28;20018;-60
2022/07/06 04:25:17;;;;;;;;;;;563.40;2432.00;;;;;;5093601;28;19916;-60
2022/07/06 04:27:43;;;;;;;;;;;563.60;2432.00;;;;;;5093566;28;19966;-62
2022/07/06 04:30:09;;;;;;;;;;;563.80;2432.00;;;;;;5093514;28;19955;-60
2022/07/06 04:32:35;;;;;;;;;;;564.00;2432.00;;;;;;5093555;28;19912;-61
2022/07/06 04:35:01;;;;;;;;;;;564.10;2432.00;;;;;;5093624;28;19934;-59
2022/07/06 04:37:26;;;;;;;;;;;589.10;2432.00;;;;;;5093169;28;20002;-61
2022/07/06 04:39:52;;;;;;;;;;;640.50;2432.00;;;;;;5093496;28;19940;-59
2022/07/06 04:42:18;;;;;;;;;;;717.20;2124.80;;;;;;5092063;28;19916;-61
2022/07/06 04:44:43;;;;;;;;;;;793.60;1843.20;;;;;;5093476;28;20002;-62
2022/07/06 04:47:09;;;;;;;;;;;819.30;1664.00;;;;;;5093400;28;19961;-58
2022/07/06 04:49:34;;;;;;;;;;;819.40;1638.40;;;;;;5093230;28;20271;-63
2022/07/06 04:52:00;;;;;;;;;;;819.80;1587.20;;;;;;5093221;28;19973;-59
2022/07/06 04:54:25;;;;;;;;;;;870.40;1510.40;;;;;;5092708;28;19908;-63
2022/07/06 04:56:51;;;;;;;;;;;870.90;1459.20;;;;;;5093285;28;19936;-60
2022/07/06 04:59:17;;;;;;;;;;;921.80;1382.40;;;;;;5092891;28;19927;-61
2022/07/06 05:01:42;;;;;;;;;;;947.70;1280.00;;;;;;5092643;28;19939;-57
2022/07/06 05:04:08;;;;;;;;;;;947.90;1254.40;;;;;;5092918;28;19952;-61
2022/07/06 05:06:34;;;;;;;;;;;973.20;1228.80;;;;;;5092887;28;20011;-59
2022/07/06 05:09:00;;;;;;;;;;;973.30;1228.80;;;;;;5092192;28;19908;-59
2022/07/06 05:11:26;;;;;;;;;;;973.40;1203.20;;;;;;5092331;28;19915;-61
2022/07/06 05:13:52;;;;;;;;;;;973.20;1203.20;;;;;;5093021;28;19908;-59
2022/07/06 05:16:17;;;;;;;;;;;998.40;1203.20;;;;;;5092476;28;20278;-60
2022/07/06 05:18:43;;;;;;;;;;;998.60;1177.60;;;;;;5092746;28;19912;-59
2022/07/06 05:21:08;;;;;;;;;;;999.10;1152.00;;;;;;5092649;28;20010;-59
2022/07/06 05:23:34;;;;;;;;;;;1049.60;1126.40;;;;;;5092501;28;19908;-62
2022/07/06 05:26:00;;;;;;;;;;;1050.30;1075.20;;;;;;5092366;28;20797;-61
2022/07/06 05:28:25;;;;;;;;;;;1024.90;1075.20;;;;;;5092327;28;19991;-62
2022/07/06 05:30:51;;;;;;;;;;;1024.40;1100.80;;;;;;5092277;28;20011;-60
2022/07/06 05:33:16;;;;;;;;;;;999.10;1126.40;;;;;;5092075;28;20038;-60
2022/07/06 05:35:42;;;;;;;;;;;1024.00;1100.80;;;;;;5092500;28;19912;-61
2022/07/06 05:38:08;;;;;;;;;;;1024.90;1075.20;;;;;;5092280;28;20369;-58
2022/07/06 05:40:33;;;;;;;;;;;1075.60;1024.00;;;;;;5092356;28;19908;-60
2022/07/06 05:42:59;;;;;;;;;;;1075.40;1024.00;;;;;;5091989;28;19917;-60
2022/07/06 05:45:24;;;;;;;;;;;1050.10;1049.60;;;;;;5091902;28;19908;-61
2022/07/06 05:50:34;;;;;;;;;;;1101.00;998.40;;;;;;5092149;28;19916;-61
2022/07/06 05:53:01;;;;;;;;;;;1075.80;972.80;;;;;;5091735;28;19909;-61
2022/07/06 05:55:27;;;;;;;;;;;1075.20;998.40;;;;;;5091710;28;19951;-60
2022/07/06 05:57:53;;;;;;;;;;;1024.40;1049.60;;;;;;5091925;28;19919;-60
2022/07/06 06:00:20;;;;;;;;;;;1050.00;1024.00;;;;;;5089998;28;19920;-59
2022/07/06 06:02:45;;;;;;;;;;;1049.70;1024.00;;;;;;5091584;28;20366;-60
2022/07/06 06:05:11;;;;;;;;;;;1075.20;998.40;;;;;;5091738;28;19915;-61
2022/07/06 06:07:37;;;;;;;;;;;1075.20;998.40;;;;;;5091492;28;19912;-59
2022/07/06 06:10:03;;;;;;;;;;;1075.90;972.80;;;;;;5091485;28;19996;-60
2022/07/06 06:12:29;;;;;;;;;;;1075.80;947.20;;;;;;5091681;28;19991;-61
2022/07/06 06:14:54;;;;;;;;;;;1075.50;972.80;;;;;;5091590;28;20342;-60
2022/07/06 06:17:20;;;;;;;;;;;1075.90;947.20;;;;;;5091820;28;19930;-59
2022/07/06 06:19:45;;;;;;;;;;;1101.50;947.20;;;;;;5091464;28;19962;-60
2022/07/06 06:22:11;;;;;;;;;;;1101.40;947.20;;;;;;5091466;28;20331;-58
2022/07/06 06:24:36;;;;;;;;;;;1101.30;921.60;;;;;;5091201;28;20370;-60
2022/07/06 06:27:02;;;;;;;;;;;1101.20;947.20;;;;;;5091295;28;19915;-61
2022/07/06 06:29:28;;;;;;;;;;;1101.00;947.20;;;;;;5091010;28;19919;-56
2022/07/06 06:31:53;;;;;;;;;;;1101.00;947.20;;;;;;5091218;28;20266;-63
2022/07/06 06:34:19;;;;;;;;;;;1101.70;921.60;;;;;;5091220;28;19953;-67
2022/07/06 06:36:44;;;;;;;;;;;1075.80;921.60;;;;;;5091143;28;20370;-59
2022/07/06 06:39:10;;;;;;;;;;;1101.10;947.20;;;;;;5091191;28;20277;-67
2022/07/06 06:41:35;;;;;;;;;;;1075.90;947.20;;;;;;5090909;28;20346;-57
2022/07/06 06:44:01;;;;;;;;;;;1101.50;921.60;;;;;;5091186;28;19977;-67
2022/07/06 06:46:26;;;;;;;;;;;1101.00;947.20;;;;;;5090785;28;19908;-67
2022/07/06 06:48:52;;;;;;;;;;;1101.30;921.60;;;;;;5091201;28;19915;-67
2022/07/06 06:51:17;;;;;;;;;;;1075.20;972.80;;;;;;5090887;28;20346;-58
2022/07/06 06:53:43;;;;;;;;;;;1101.10;947.20;;;;;;5090974;28;20255;-57
2022/07/06 06:56:09;;;;;;;;;;;1101.70;921.60;;;;;;5090690;28;19931;-60
2022/07/06 06:58:34;;;;;;;;;;;1126.40;947.20;;;;;;5090809;28;19998;-59
2022/07/06 07:01:00;;;;;;;;;;;1126.50;921.60;;;;;;5090578;28;19924;-67
2022/07/06 07:03:25;;;;;;;;;;;1127.00;896.00;;;;;;5090351;28;20328;-57
2022/07/06 07:05:51;;;;;;;;;;;1152.40;870.40;;;;;;5090316;28;19915;-62
2022/07/06 07:08:16;;;;;;;;;;;1152.20;896.00;;;;;;5090453;28;20386;-58
2022/07/06 07:10:42;;;;;;;;;;;1152.50;870.40;;;;;;5090680;28;19908;-66
2022/07/06 07:13:07;;;;;;;;;;;1152.20;870.40;;;;;;5090430;28;19909;-68
2022/07/06 07:15:33;;;;;;;;;;;1127.30;870.40;;;;;;5090780;28;20366;-62
2022/07/06 07:17:59;;;;;;;;;;;1152.40;844.80;;;;;;5090273;28;20361;-68
2022/07/06 07:20:25;;;;;;;;;;;1152.60;844.80;;;;;;5090660;28;19961;-58
2022/07/06 07:22:50;;;;;;;;;;;1126.90;870.40;;;;;;5090503;28;19916;-67
2022/07/06 07:25:16;;;;;;;;;;;1127.30;870.40;;;;;;5090012;28;19916;-59
2022/07/06 07:27:41;;;;;;;;;;;1152.70;844.80;;;;;;5090569;28;19908;-58
2022/07/06 07:30:07;;;;;;;;;;;1127.00;870.40;;;;;;5090398;28;20348;-68
2022/07/06 07:32:33;;;;;;;;;;;1050.00;972.80;;;;;;5090435;28;19982;-62
2022/07/06 07:34:59;;;;;;;;;;;1049.90;972.80;;;;;;5090178;28;19908;-68
2022/07/06 07:37:24;;;;;;;;;;;1101.00;921.60;;;;;;5090271;28;19912;-58
2022/07/06 07:39:50;;;;;;;;;;;1075.70;921.60;;;;;;5090173;28;20002;-68
2022/07/06 07:42:15;;;;;;;;;;;1101.50;921.60;;;;;;5090022;28;19920;-67
2022/07/06 07:44:41;;;;;;;;;;;1075.40;921.60;;;;;;5090363;28;19908;-58
2022/07/06 07:47:07;;;;;;;;;;;1075.60;921.60;;;;;;5090201;28;20300;-57
2022/07/06 07:49:32;;;;;;;;;;;1101.30;896.00;;;;;;5090225;28;19913;-67
2022/07/06 07:51:58;;;;;;;;;;;1127.30;870.40;;;;;;5090196;28;19912;-68
2022/07/06 07:54:23;;;;;;;;;;;1127.00;870.40;;;;;;5090187;28;20374;-57
2022/07/06 07:56:49;;;;;;;;;;;1152.50;844.80;;;;;;5089998;28;19969;-68
2022/07/06 07:59:14;;;;;;;;;;;1152.60;844.80;;;;;;5090020;28;19916;-68
2022/07/06 08:01:40;;;;;;;;;;;1152.60;844.80;;;;;;5090332;28;19977;-67
2022/07/06 08:04:06;;;;;;;;;;;1178.00;819.20;;;;;;5089948;28;19973;-58
2022/07/06 08:06:31;;;;;;;;;;;1152.10;844.80;;;;;;5090173;28;19915;-57
2022/07/06 08:08:57;;;;;;;;;;;1152.10;844.80;;;;;;5089827;28;20357;-67
2022/07/06 08:11:23;;;;;;;;;;;1126.70;896.00;;;;;;5090269;28;19912;-57
2022/07/06 08:13:48;;;;;;;;;;;1126.40;896.00;;;;;;5089758;28;19915;-67
2022/07/06 08:16:14;;;;;;;;;;;1126.40;896.00;;;;;;5091962;28;19908;-63
2022/07/06 08:18:39;;;;;;;;;;;1076.10;896.00;;;;;;5093672;28;20366;-57
2022/07/06 08:21:05;;;;;;;;;;;1024.00;972.80;;;;;;5093672;28;19915;-57
2022/07/06 08:23:31;;;;;;;;;;;948.10;998.40;;;;;;5093543;28;19920;-57
2022/07/06 08:25:56;;;;;;;;;;;896.80;1100.80;;;;;;5093444;28;19935;-57
2022/07/06 08:28:22;;;;;;;;;;;871.30;1126.40;;;;;;5093573;28;19908;-57
2022/07/06 08:30:47;;;;;;;;;;;871.00;1177.60;;;;;;5093156;28;19916;-66
2022/07/06 08:33:13;;;;;;;;;;;845.70;1177.60;;;;;;5093462;28;20354;-63
2022/07/06 08:35:39;;;;;;;;;;;845.70;1203.20;;;;;;5093570;28;19908;-64
2022/07/06 08:38:04;;;;;;;;;;;845.10;1254.40;;;;;;5093072;28;19915;-57
2022/07/06 08:40:32;;;;;;;;;;;844.90;1254.40;;;;;;5093445;28;19919;-57
2022/07/06 08:42:59;;;;;;;;;;;819.90;1254.40;;;;;;5093064;28;20294;-57
2022/07/06 08:45:25;;;;;;;;;;;819.90;1254.40;;;;;;5093162;28;19916;-65
2022/07/06 08:47:51;;;;;;;;;;;819.30;1280.00;;;;;;5093217;28;19908;-57
2022/07/06 08:50:16;;;;;;;;;;;819.30;1280.00;;;;;;5092949;28;19908;-57
2022/07/06 08:52:42;;;;;;;;;;;819.20;1280.00;;;;;;5093000;28;20255;-65
2022/07/06 08:55:11;;;;;;;;;;;794.20;1305.60;;;;;;5091963;28;19912;-63
2022/07/06 08:57:39;;;;;;;;;;;794.00;1331.20;;;;;;5092686;28;20366;-57
2022/07/06 09:00:08;;;;;;;;;;;794.20;1331.20;;;;;;5092016;28;19920;-58
2022/07/06 09:02:34;;;;;;;;;;;794.00;1305.60;;;;;;5090081;28;19942;-62
2022/07/06 09:05:01;;;;;;;;;;;793.70;1305.60;;;;;;5092373;28;20015;-57
2022/07/06 09:07:28;;;;;;;;;;;793.70;1331.20;;;;;;5091629;28;19912;-57
2022/07/06 09:09:54;;;;;;;;;;;768.90;1305.60;;;;;;5091239;28;19920;-58
2022/07/06 09:12:19;;;;;;;;;;;768.90;1305.60;;;;;;5091738;28;19912;-65
2022/07/06 09:14:45;;;;;;;;;;;768.90;1305.60;;;;;;5091600;28;20441;-60
2022/07/06 09:17:11;;;;;;;;;;;793.70;1356.80;;;;;;5091525;28;20286;-59
2022/07/06 09:19:37;;;;;;;;;;;793.70;1305.60;;;;;;5091748;28;19947;-57
2022/07/06 09:22:04;;;;;;;;;;;768.70;1254.40;;;;;;5091883;28;19959;-66
2022/07/06 09:24:31;;;;;;;;;;;768.40;1228.80;;;;;;5091954;28;19970;-65
2022/07/06 09:26:58;;;;;;;;;;;768.40;1228.80;;;;;;5088847;28;19908;-62
2022/07/06 09:29:27;;;;;;;;;;;768.40;1228.80;;;;;;5091933;28;19952;-64
2022/07/06 09:32:00;;;;;;;;;;;768.40;1254.40;;;;;;5092284;28;19913;-63
2022/07/06 09:34:40;;;;;;;;;;;768.40;1280.00;;;;;;5091829;28;19909;-64
2022/07/06 09:37:05;;;;;;;;;;;768.40;1254.40;;;;;;5090493;28;19908;-57
2022/07/06 09:39:31;;;;;;;;;;;768.40;1254.40;;;;;;5091530;28;19912;-65
2022/07/06 09:41:58;;;;;;;;;;;768.60;1254.40;;;;;;5089154;28;19926;-64
2022/07/06 09:44:36;;;;;;;;;;;768.40;1280.00;;;;;;5091421;28;19965;-60
2022/07/06 09:47:03;;;;;;;;;;;768.30;1254.40;;;;;;5089882;28;19912;-65
2022/07/06 09:49:28;;;;;;;;;;;768.30;1280.00;;;;;;5091561;28;20320;-65
2022/07/06 09:51:55;;;;;;;;;;;768.20;1280.00;;;;;;5091631;28;19908;-62
2022/07/06 09:54:20;;;;;;;;;;;768.00;1305.60;;;;;;5091511;28;19912;-65
2022/07/06 09:56:53;;;;;;;;;;;743.30;1305.60;;;;;;5091246;28;19908;-55
2022/07/06 09:59:19;;;;;;;;;;;743.30;1305.60;;;;;;5091724;28;19950;-57
2022/07/06 10:01:45;;;;;;;;;;;743.30;1305.60;;;;;;5091628;28;19924;-57
2022/07/06 10:04:18;;;;;;;;;;;743.30;1331.20;;;;;;5091642;28;19954;-57
2022/07/06 10:06:44;;;;;;;;;;;768.30;1305.60;;;;;;5091803;28;19935;-59
2022/07/06 10:09:10;;;;;;;;;;;768.30;1305.60;;;;;;5091651;28;19995;-64
2022/07/06 10:11:40;;;;;;;;;;;768.20;1305.60;;;;;;5091390;28;19908;-57
2022/07/06 10:14:06;;;;;;;;;;;768.30;1305.60;;;;;;5091399;28;20354;-57
2022/07/06 10:16:34;;;;;;;;;;;768.30;1280.00;;;;;;5091565;28;19908;-57
2022/07/06 10:19:01;;;;;;;;;;;768.10;1280.00;;;;;;5091287;28;19915;-57
2022/07/06 10:21:27;;;;;;;;;;;743.30;1331.20;;;;;;5091224;28;19908;-61
2022/07/06 10:23:53;;;;;;;;;;;743.30;1305.60;;;;;;5091453;28;19961;-60
2022/07/06 10:26:20;;;;;;;;;;;743.30;1331.20;;;;;;5091203;28;19908;-57
2022/07/06 10:28:46;;;;;;;;;;;743.30;1305.60;;;;;;5091374;28;19954;-65
2022/07/06 10:31:14;;;;;;;;;;;768.00;1305.60;;;;;;5091195;28;19912;-64
2022/07/06 10:33:40;;;;;;;;;;;768.00;1280.00;;;;;;5091167;28;19912;-60
2022/07/06 10:36:07;;;;;;;;;;;768.00;1280.00;;;;;;5091090;28;19961;-64
2022/07/06 10:38:33;;;;;;;;;;;743.30;1280.00;;;;;;5090664;28;19994;-65
2022/07/06 10:41:03;;;;;;;;;;;743.30;1280.00;;;;;;5090448;28;19996;-57
2022/07/06 10:43:36;;;;;;;;;;;768.00;1305.60;;;;;;5090949;28;19923;-65
2022/07/06 10:46:05;;;;;;;;;;;768.00;1331.20;;;;;;5091161;28;19983;-65
2022/07/06 10:48:34;;;;;;;;;;;768.20;1305.60;;;;;;5091072;28;19954;-66
2022/07/06 10:51:01;;;;;;;;;;;768.40;1305.60;;;;;;5090818;28;19908;-59
2022/07/06 10:53:28;;;;;;;;;;;768.20;1305.60;;;;;;5090593;28;20381;-66
2022/07/06 10:55:55;;;;;;;;;;;768.40;1280.00;;;;;;5090868;28;19923;-61
2022/07/06 10:58:40;;;;;;;;;;;768.60;1305.60;;;;;;5090757;28;19909;-65
2022/07/06 11:01:06;;;;;;;;;;;768.90;1254.40;;;;;;5090514;28;19927;-60
2022/07/06 11:03:39;;;;;;;;;;;768.80;1280.00;;;;;;5090767;28;19920;-57
2022/07/06 11:06:05;;;;;;;;;;;768.60;1305.60;;;;;;5090614;28;20414;-64
2022/07/06 11:08:46;;;;;;;;;;;768.90;1305.60;;;;;;5090644;28;19965;-63
2022/07/06 11:11:16;;;;;;;;;;;768.90;1280.00;;;;;;5090623;28;19914;-57
2022/07/06 11:13:43;;;;;;;;;;;768.60;1305.60;;;;;;5090753;28;20000;-57
2022/07/06 11:16:08;;;;;;;;;;;768.40;1305.60;;;;;;5090605;28;20377;-65
2022/07/06 11:18:41;;;;;;;;;;;768.30;1305.60;;;;;;5090594;28;19916;-59
2022/07/06 11:21:15;;;;;;;;;;;768.30;1331.20;;;;;;5090727;28;19912;-63
2022/07/06 11:23:41;;;;;;;;;;;768.20;1331.20;;;;;;5090662;28;20350;-64
2022/07/06 11:26:07;;;;;;;;;;;768.10;1305.60;;;;;;5090628;28;20346;-65
2022/07/06 11:28:33;;;;;;;;;;;768.30;1280.00;;;;;;5090634;28;19912;-65
2022/07/06 11:30:59;;;;;;;;;;;768.20;1305.60;;;;;;5090179;28;20266;-65
2022/07/06 11:33:28;;;;;;;;;;;768.20;1305.60;;;;;;5090384;28;19962;-65
2022/07/06 11:36:11;;;;;;;;;;;768.00;1331.20;;;;;;5090462;28;19931;-58
2022/07/06 11:38:36;;;;;;;;;;;768.10;1331.20;;;;;;5090031;28;20373;-57
2022/07/06 11:41:02;;;;;;;;;;;768.40;1356.80;;;;;;5089033;28;19912;-65
2022/07/06 11:43:28;;;;;;;;;;;768.40;1331.20;;;;;;5088420;28;19917;-61
2022/07/06 11:45:53;;;;;;;;;;;768.30;1331.20;;;;;;5088845;28;19916;-63
2022/07/06 11:48:19;;;;;;;;;;;768.50;1331.20;;;;;;5088587;28;20631;-64
2022/07/06 11:50:56;;;;;;;;;;;768.10;1356.80;;;;;;5090128;28;19956;-57
2022/07/06 11:53:22;;;;;;;;;;;768.00;1356.80;;;;;;5092942;28;19908;-61
2022/07/06 11:55:47;;;;;;;;;;;768.10;1356.80;;;;;;5092175;28;20285;-59
2022/07/06 11:58:13;;;;;;;;;;;768.30;1356.80;;;;;;5092699;28;19955;-62
2022/07/06 12:00:39;;;;;;;;;;;768.50;1331.20;;;;;;5092228;28;20352;-65
2022/07/06 12:03:04;;;;;;;;;;;768.60;1331.20;;;;;;5092502;28;20022;-65
2022/07/06 12:05:30;;;;;;;;;;;768.90;1331.20;;;;;;5092636;28;19912;-66
2022/07/06 12:08:06;;;;;;;;;;;793.70;1356.80;;;;;;5092060;28;20285;-62
2022/07/06 12:10:37;;;;;;;;;;;793.70;1356.80;;;;;;5092359;28;19909;-57
2022/07/06 12:13:03;;;;;;;;;;;793.70;1331.20;;;;;;5092500;28;19916;-62
2022/07/06 12:15:29;;;;;;;;;;;793.60;1356.80;;;;;;5092108;28;19977;-59
2022/07/06 12:17:55;;;;;;;;;;;793.70;1356.80;;;;;;5092185;28;19908;-62
2022/07/06 12:20:20;;;;;;;;;;;793.90;1331.20;;;;;;5091518;28;19957;-64
2022/07/06 12:22:46;;;;;;;;;;;793.90;1305.60;;;;;;5091782;28;19969;-58
2022/07/06 12:25:11;;;;;;;;;;;793.60;1331.20;;;;;;5092119;28;19912;-64
2022/07/06 12:27:37;;;;;;;;;;;793.80;1356.80;;;;;;5091808;28;19915;-58
2022/07/06 12:30:09;;;;;;;;;;;793.60;1356.80;;;;;;5091947;28;19912;-57
2022/07/06 12:32:36;;;;;;;;;;;793.70;1356.80;;;;;;5092325;28;19978;-65
2022/07/06 12:35:05;;;;;;;;;;;768.90;1356.80;;;;;;5091753;28;19909;-61
2022/07/06 12:37:31;;;;;;;;;;;768.90;1356.80;;;;;;5091999;28;19954;-57
2022/07/06 12:39:56;;;;;;;;;;;793.60;1356.80;;;;;;5091640;28;19965;-61
2022/07/06 12:42:22;;;;;;;;;;;793.60;1382.40;;;;;;5091799;28;19916;-62
2022/07/06 12:44:49;;;;;;;;;;;793.60;1382.40;;;;;;5091637;28;19952;-65
2022/07/06 12:47:19;;;;;;;;;;;793.70;1382.40;;;;;;5091339;28;19908;-60
2022/07/06 12:49:46;;;;;;;;;;;793.60;1382.40;;;;;;5091837;28;19912;-59
2022/07/06 12:52:12;;;;;;;;;;;768.50;1331.20;;;;;;5091674;28;20366;-58
2022/07/06 12:54:42;;;;;;;;;;;768.90;1331.20;;;;;;5091645;28;20380;-62
2022/07/06 12:57:10;;;;;;;;;;;768.60;1305.60;;;;;;5090076;28;19908;-61
2022/07/06 12:59:37;;;;;;;;;;;768.70;1305.60;;;;;;5090634;28;19989;-61
2022/07/06 13:02:03;;;;;;;;;;;768.90;1331.20;;;;;;5090591;28;19924;-57
2022/07/06 13:04:31;;;;;;;;;;;793.60;1331.20;;;;;;5091408;28;19915;-59
2022/07/06 13:06:57;;;;;;;;;;;793.70;1331.20;;;;;;5091148;28;20472;-63
2022/07/06 13:09:23;;;;;;;;;;;794.00;1356.80;;;;;;5091273;28;19912;-57
2022/07/06 13:11:49;;;;;;;;;;;794.10;1331.20;;;;;;5091012;28;20002;-59
2022/07/06 13:14:15;;;;;;;;;;;794.10;1305.60;;;;;;5090903;28;19920;-63
2022/07/06 13:16:40;;;;;;;;;;;794.00;1305.60;;;;;;5091443;28;19908;-62
2022/07/06 13:19:07;;;;;;;;;;;793.90;1305.60;;;;;;5091154;28;20316;-60
2022/07/06 13:21:32;;;;;;;;;;;793.60;1305.60;;;;;;5091248;28;20366;-59
2022/07/06 13:23:58;;;;;;;;;;;793.70;1280.00;;;;;;5090918;28;19968;-63
2022/07/06 13:26:23;;;;;;;;;;;793.70;1280.00;;;;;;5090755;28;19965;-62
2022/07/06 13:28:49;;;;;;;;;;;768.60;1228.80;;;;;;5090659;28;19912;-58
2022/07/06 13:31:14;;;;;;;;;;;768.70;1254.40;;;;;;5090955;28;19947;-59
2022/07/06 13:33:40;;;;;;;;;;;768.60;1254.40;;;;;;5091683;28;20010;-58
2022/07/06 13:36:06;;;;;;;;;;;768.70;1254.40;;;;;;5092522;28;20125;-57
2022/07/06 13:38:31;;;;;;;;;;;793.60;1280.00;;;;;;5092342;28;19908;-59
2022/07/06 13:40:57;;;;;;;;;;;793.60;1305.60;;;;;;5092044;28;19908;-58